createdAt,value
2018-03-19T00:10:12.703Z,8.37
2018-03-19T00:12:45.058Z,8.60
2018-03-19T00:15:17.539Z,8.80
2018-03-19T00:17:50.002Z,7.07
2018-03-19T00:20:22.593Z,10.20
2018-03-19T00:22:55.226Z,7.17
2018-03-19T00:25:27.678Z,8.53
2018-03-19T00:28:00.212Z,7.90
2018-03-19T00:30:32.764Z,8.67
2018-03-19T00:33:05.784Z,7.53
2018-03-19T00:35:38.477Z,8.57
2018-03-19T00:38:11.603Z,9.37
2018-03-19T00:40:44.132Z,8.50
2018-03-19T00:43:16.804Z,8.77
2018-03-19T00:45:49.527Z,8.33
2018-03-19T00:48:22.307Z,10.00
2018-03-19T00:50:55.417Z,7.60
2018-03-19T00:53:27.902Z,7.47
2018-03-19T00:56:00.888Z,8.33
2018-03-19T00:58:33.554Z,9.47
2018-03-19T01:01:06.072Z,8.53
2018-03-19T01:03:38.508Z,7.47
2018-03-19T01:06:10.988Z,12.53
2018-03-19T01:08:43.844Z,7.90
2018-03-19T01:11:16.592Z,10.23
2018-03-19T01:13:49.082Z,9.20
2018-03-19T01:16:21.522Z,10.60
2018-03-19T01:18:54.102Z,10.07
2018-03-19T01:21:26.542Z,9.50
2018-03-19T01:23:59.207Z,8.40
2018-03-19T01:26:31.746Z,9.00
2018-03-19T01:29:04.393Z,9.23
2018-03-19T01:31:36.903Z,9.50
2018-03-19T01:34:09.239Z,8.13
2018-03-19T01:36:41.777Z,10.87
2018-03-19T01:39:15.191Z,8.60
2018-03-19T01:41:47.932Z,10.47
2018-03-19T01:44:20.376Z,9.73
2018-03-19T01:46:53.542Z,8.67
2018-03-19T01:49:26.001Z,9.80
2018-03-19T01:51:58.636Z,9.93
2018-03-19T01:54:31.072Z,9.57
2018-03-19T01:57:03.508Z,10.80
2018-03-19T01:59:35.994Z,8.00
2018-03-19T02:02:09.237Z,8.67
2018-03-19T02:04:43.127Z,9.47
2018-03-19T02:07:15.586Z,10.20
2018-03-19T02:09:47.906Z,10.10
2018-03-19T02:12:20.484Z,10.73
2018-03-19T02:14:53.095Z,10.87
2018-03-19T02:17:25.582Z,9.57
2018-03-19T02:19:58.158Z,10.27
2018-03-19T02:22:30.672Z,9.90
2018-03-19T02:25:03.407Z,10.93
2018-03-19T02:27:36.021Z,8.43
2018-03-19T02:30:08.866Z,8.87
2018-03-19T02:32:42.894Z,13.37
2018-03-19T02:35:15.389Z,10.33
2018-03-19T02:37:48.534Z,10.40
2018-03-19T02:40:21.114Z,10.57
2018-03-19T02:42:53.674Z,6.77
2018-03-19T02:45:26.237Z,7.50
2018-03-19T02:47:58.792Z,7.60
2018-03-19T02:50:31.208Z,13.53
2018-03-19T02:53:03.603Z,9.23
2018-03-19T02:55:36.337Z,8.53
2018-03-19T02:58:09.082Z,8.93
2018-03-19T03:00:41.759Z,10.80
2018-03-19T03:03:14.495Z,7.40
2018-03-19T03:05:47.764Z,8.50
2018-03-19T03:08:21.752Z,9.67
2018-03-19T03:10:54.186Z,7.47
2018-03-19T03:13:26.640Z,8.53
2018-03-19T03:16:00.159Z,9.87
2018-03-19T03:18:32.884Z,6.93
2018-03-19T03:21:05.430Z,8.10
2018-03-19T03:23:37.741Z,8.97
2018-03-19T03:26:10.341Z,9.37
2018-03-19T03:28:42.947Z,10.10
2018-03-19T03:31:15.534Z,10.13
2018-03-19T03:33:48.944Z,11.73
2018-03-19T03:36:22.081Z,11.13
2018-03-19T03:38:55.296Z,8.53
2018-03-19T03:41:27.753Z,9.47
2018-03-19T03:44:00.402Z,9.20
2018-03-19T03:46:33.593Z,10.13
2018-03-19T03:49:05.963Z,9.90
2018-03-19T03:51:38.299Z,10.67
2018-03-19T03:54:10.744Z,9.43
2018-03-19T03:56:43.316Z,9.50
2018-03-19T03:59:15.707Z,11.07
2018-03-19T04:01:48.028Z,8.73
2018-03-19T04:04:20.522Z,10.53
2018-03-19T04:06:53.023Z,8.73
2018-03-19T04:09:25.615Z,8.03
2018-03-19T04:11:58.092Z,7.27
2018-03-19T04:14:30.593Z,10.27
2018-03-19T04:17:03.201Z,9.33
2018-03-19T04:19:35.657Z,12.63
2018-03-19T04:22:08.272Z,9.17
2018-03-19T04:24:40.914Z,9.97
2018-03-19T04:27:13.313Z,10.20
2018-03-19T04:29:45.788Z,7.73
2018-03-19T04:32:18.325Z,10.70
2018-03-19T04:34:50.797Z,10.70
2018-03-19T04:37:23.369Z,9.10
2018-03-19T04:39:55.904Z,11.07
2018-03-19T04:42:28.531Z,6.57
2018-03-19T04:45:01.163Z,11.07
2018-03-19T04:47:33.817Z,13.23
2018-03-19T04:50:07.109Z,8.20
2018-03-19T04:52:40.038Z,9.73
2018-03-19T04:55:12.667Z,8.63
2018-03-19T04:57:45.341Z,8.50
2018-03-19T05:00:18.571Z,7.07
2018-03-19T05:02:51.747Z,9.23
2018-03-19T05:05:25.205Z,10.13
2018-03-19T05:07:58.361Z,8.07
2018-03-19T05:10:30.902Z,16.37
2018-03-19T05:13:04.268Z,7.87
2018-03-19T05:15:36.767Z,7.43
2018-03-19T05:18:09.247Z,12.33
2018-03-19T05:20:41.673Z,11.10
2018-03-19T05:23:13.982Z,8.20
2018-03-19T05:25:46.678Z,10.43
2018-03-19T05:28:19.260Z,8.63
2018-03-19T05:30:51.958Z,9.13
2018-03-19T05:33:24.537Z,13.50
2018-03-19T05:35:56.947Z,8.80
2018-03-19T05:38:29.357Z,13.00
2018-03-19T05:41:02.618Z,7.87
2018-03-19T05:43:35.048Z,7.87
2018-03-19T05:46:07.418Z,10.03
2018-03-19T05:48:39.930Z,10.47
2018-03-19T05:51:12.474Z,10.10
2018-03-19T05:53:45.147Z,11.27
2018-03-19T05:56:17.722Z,12.67
2018-03-19T05:58:50.868Z,11.63
2018-03-19T06:01:24.090Z,10.20
2018-03-19T06:03:57.994Z,10.03
2018-03-19T06:06:30.472Z,11.03
2018-03-19T06:09:03.176Z,6.97
2018-03-19T06:11:35.767Z,8.47
2018-03-19T06:14:08.928Z,10.57
2018-03-19T06:16:41.617Z,9.67
2018-03-19T06:19:14.058Z,9.10
2018-03-19T06:21:46.608Z,10.07
2018-03-19T06:24:20.069Z,9.20
2018-03-19T06:26:52.515Z,11.83
2018-03-19T06:29:25.098Z,10.00
2018-03-19T06:31:57.709Z,9.10
2018-03-19T06:34:30.260Z,8.73
2018-03-19T06:37:02.687Z,13.27
2018-03-19T06:39:35.554Z,11.33
2018-03-19T06:42:08.027Z,9.17
2018-03-19T06:44:40.498Z,10.97
2018-03-19T06:47:13.001Z,11.07
2018-03-19T06:49:45.453Z,11.20
2018-03-19T06:52:17.885Z,10.43
2018-03-19T06:54:50.420Z,8.30
2018-03-19T06:57:29.999Z,11.10
2018-03-19T07:00:02.823Z,11.27
2018-03-19T07:02:35.944Z,11.00
2018-03-19T07:05:08.328Z,14.67
2018-03-19T07:07:40.869Z,10.67
2018-03-19T07:10:13.388Z,12.47
2018-03-19T07:12:45.795Z,11.37
2018-03-19T07:15:18.685Z,11.33
2018-03-19T07:17:51.185Z,9.60
2018-03-19T07:20:23.649Z,12.80
2018-03-19T07:22:56.823Z,10.07
2018-03-19T07:25:29.213Z,11.37
2018-03-19T07:28:01.657Z,11.43
2018-03-19T07:30:34.371Z,11.23
2018-03-19T07:33:06.977Z,14.57
2018-03-19T07:35:39.490Z,8.57
2018-03-19T07:38:12.069Z,11.27
2018-03-19T07:40:44.506Z,9.20
2018-03-19T07:43:17.181Z,9.87
2018-03-19T07:45:49.618Z,16.33
2018-03-19T07:48:22.500Z,11.83
2018-03-19T07:50:54.910Z,10.57
2018-03-19T07:53:27.418Z,9.30
2018-03-19T07:56:00.444Z,10.80
2018-03-19T07:58:33.600Z,7.97
2018-03-19T08:01:06.173Z,9.20
2018-03-19T08:03:39.011Z,9.20
2018-03-19T08:06:12.213Z,10.57
2018-03-19T08:08:44.751Z,8.17
2018-03-19T08:11:17.213Z,11.63
2018-03-19T08:13:50.515Z,9.87
2018-03-19T08:16:22.873Z,7.40
2018-03-19T08:18:55.628Z,12.90
2018-03-19T08:21:28.846Z,8.80
2018-03-19T08:24:02.182Z,10.40
2018-03-19T08:26:35.555Z,8.40
2018-03-19T08:29:08.018Z,11.10
2018-03-19T08:31:40.712Z,10.73
2018-03-19T08:34:15.520Z,9.40
2018-03-19T08:36:48.030Z,8.63
2018-03-19T08:39:20.379Z,9.10
2018-03-19T08:41:52.764Z,7.90
2018-03-19T08:44:25.462Z,11.10
2018-03-19T08:46:57.967Z,9.73
2018-03-19T08:49:31.428Z,7.90
2018-03-19T08:52:03.798Z,9.70
2018-03-19T08:54:36.600Z,8.17
2018-03-19T08:57:08.934Z,8.80
2018-03-19T08:59:41.275Z,9.93
2018-03-19T09:02:13.690Z,8.63
2018-03-19T09:04:46.245Z,10.33
2018-03-19T09:07:18.851Z,11.60
2018-03-19T09:09:51.964Z,8.27
2018-03-19T09:12:25.298Z,8.83
2018-03-19T09:14:57.609Z,9.83
2018-03-19T09:17:30.266Z,6.80
2018-03-19T09:20:03.547Z,7.67
2018-03-19T09:22:35.963Z,8.87
2018-03-19T09:25:08.518Z,12.23
2018-03-19T09:27:40.951Z,10.60
2018-03-19T09:30:13.503Z,9.17
2018-03-19T09:32:46.063Z,9.33
2018-03-19T09:35:18.726Z,7.93
2018-03-19T09:37:51.222Z,8.73
2018-03-19T09:40:23.661Z,10.70
2018-03-19T09:42:56.224Z,12.37
2018-03-19T09:45:28.794Z,8.63
2018-03-19T09:48:01.859Z,9.97
2018-03-19T09:50:34.673Z,10.87
2018-03-19T09:53:07.135Z,7.23
2018-03-19T09:55:40.479Z,8.27
2018-03-19T09:58:12.980Z,8.40
2018-03-19T10:00:46.335Z,7.50
2018-03-19T10:03:18.693Z,6.90
2018-03-19T10:05:51.222Z,10.03
2018-03-19T10:08:23.750Z,9.67
2018-03-19T10:10:56.820Z,7.53
2018-03-19T10:13:30.079Z,8.30
2018-03-19T10:16:02.485Z,8.70
2018-03-19T10:18:34.909Z,6.63
2018-03-19T10:21:07.305Z,9.43
2018-03-19T10:23:40.432Z,8.30
2018-03-19T10:26:12.964Z,9.30
2018-03-19T10:28:46.586Z,9.73
2018-03-19T10:31:19.010Z,7.83
2018-03-19T10:33:51.453Z,7.93
2018-03-19T10:36:24.279Z,9.73
2018-03-19T10:38:57.066Z,7.33
2018-03-19T10:41:30.518Z,10.07
2018-03-19T10:44:03.218Z,8.80
2018-03-19T10:46:35.945Z,9.03
2018-03-19T10:49:08.583Z,8.93
2018-03-19T10:51:41.174Z,8.70
2018-03-19T10:54:13.990Z,9.67
2018-03-19T10:56:46.489Z,9.70
2018-03-19T10:59:18.878Z,9.63
2018-03-19T11:01:58.194Z,9.97
2018-03-19T11:04:31.459Z,11.43
2018-03-19T11:07:09.855Z,9.07
2018-03-19T11:09:44.990Z,12.00
2018-03-19T11:12:17.791Z,9.93
2018-03-19T11:17:30.327Z,6.87
2018-03-19T11:20:03.962Z,7.13
2018-03-19T11:22:37.107Z,8.27
2018-03-19T11:25:10.389Z,9.90
2018-03-19T11:27:43.062Z,7.33
2018-03-19T11:30:15.578Z,11.17
2018-03-19T11:32:47.964Z,8.70
2018-03-19T11:35:21.320Z,9.30
2018-03-19T11:37:53.826Z,8.83
2018-03-19T11:40:27.040Z,10.77
2018-03-19T11:43:00.263Z,13.97
2018-03-19T11:45:33.600Z,9.23
2018-03-19T11:48:06.318Z,10.77
2018-03-19T11:50:38.744Z,9.57
2018-03-19T11:53:11.397Z,9.00
2018-03-19T11:55:44.968Z,10.30
2018-03-19T11:58:17.524Z,14.67
2018-03-19T12:00:50.042Z,8.80
2018-03-19T12:03:22.504Z,9.00
2018-03-19T12:05:55.301Z,10.73
2018-03-19T12:08:27.690Z,9.57
2018-03-19T12:11:00.244Z,9.43
2018-03-19T12:13:32.805Z,10.00
2018-03-19T12:16:05.273Z,10.23
2018-03-19T12:18:37.783Z,10.07
2018-03-19T12:21:10.324Z,11.83
2018-03-19T12:23:43.459Z,9.33
2018-03-19T12:26:16.010Z,10.33
2018-03-19T12:28:48.553Z,8.67
2018-03-19T12:31:20.938Z,9.77
2018-03-19T12:33:53.415Z,10.20
2018-03-19T12:36:26.073Z,9.73
2018-03-19T12:38:58.763Z,10.73
2018-03-19T12:41:31.109Z,9.07
2018-03-19T12:44:03.476Z,9.77
2018-03-19T12:46:35.976Z,9.57
2018-03-19T12:49:08.595Z,10.73
2018-03-19T12:51:41.054Z,9.57
2018-03-19T12:54:13.536Z,9.07
2018-03-19T12:56:46.062Z,11.53
2018-03-19T12:59:18.496Z,10.43
2018-03-19T13:01:51.261Z,9.13
2018-03-19T13:04:23.843Z,9.37
2018-03-19T13:06:56.820Z,9.53
2018-03-19T13:09:29.492Z,10.13
2018-03-19T13:12:02.041Z,9.40
2018-03-19T13:14:34.543Z,10.47
2018-03-19T13:17:07.926Z,8.03
2018-03-19T13:19:40.877Z,8.53
2018-03-19T13:22:14.112Z,9.23
2018-03-19T13:24:46.801Z,9.33
2018-03-19T13:27:19.242Z,8.97
2018-03-19T13:29:51.871Z,7.43
2018-03-19T13:32:24.341Z,10.03
2018-03-19T13:34:56.926Z,8.40
2018-03-19T13:37:29.493Z,9.27
2018-03-19T13:40:02.177Z,9.03
2018-03-19T13:42:34.642Z,9.63
2018-03-19T13:45:07.125Z,8.67
2018-03-19T13:47:40.645Z,7.67
2018-03-19T13:50:13.014Z,9.10
2018-03-19T13:52:45.460Z,10.20
2018-03-19T13:55:18.344Z,9.13
2018-03-19T13:57:52.081Z,8.27
2018-03-19T14:00:25.361Z,9.03
2018-03-19T14:02:58.135Z,7.97
2018-03-19T14:05:31.389Z,8.40
2018-03-19T14:08:04.482Z,9.70
2018-03-19T14:10:36.959Z,8.80
2018-03-19T14:13:09.301Z,10.13
2018-03-19T14:15:42.505Z,9.07
2018-03-19T14:18:15.131Z,9.10
2018-03-19T14:20:47.765Z,6.80
2018-03-19T14:23:21.091Z,7.53
2018-03-19T14:26:00.680Z,6.57
2018-03-19T14:28:33.316Z,7.53
2018-03-19T14:31:06.642Z,9.17
2018-03-19T14:33:39.164Z,9.70
2018-03-19T14:36:12.526Z,8.90
2018-03-19T14:38:45.022Z,10.00
2018-03-19T14:41:17.400Z,7.83
2018-03-19T14:43:50.029Z,10.63
2018-03-19T14:46:23.174Z,10.20
2018-03-19T14:48:56.505Z,8.10
2018-03-19T14:51:29.051Z,10.23
2018-03-19T14:54:01.616Z,7.77
2018-03-19T14:56:34.935Z,9.93
2018-03-19T14:59:07.480Z,7.60
2018-03-19T15:01:40.035Z,8.07
2018-03-19T15:04:12.784Z,7.00
2018-03-19T15:06:45.389Z,8.07
2018-03-19T15:09:17.929Z,10.17
2018-03-19T15:11:50.939Z,8.00
2018-03-19T15:14:23.620Z,8.97
2018-03-19T15:16:56.065Z,7.17
2018-03-19T15:19:28.950Z,10.27
2018-03-19T15:22:02.147Z,8.83
2018-03-19T15:24:35.477Z,7.43
2018-03-19T15:27:15.029Z,7.50
2018-03-19T15:29:47.524Z,8.40
2018-03-19T15:32:20.005Z,6.67
2018-03-19T15:34:52.480Z,7.30
2018-03-19T15:37:25.175Z,7.90
2018-03-19T15:39:58.480Z,9.03
2018-03-19T15:42:31.075Z,7.33
2018-03-19T15:45:03.658Z,7.93
2018-03-19T15:47:36.292Z,7.50
2018-03-19T15:50:08.740Z,8.17
2018-03-19T15:52:41.324Z,7.30
2018-03-19T15:55:14.356Z,7.87
2018-03-19T15:57:48.159Z,10.37
2018-03-19T16:00:20.925Z,8.70
2018-03-19T16:02:53.454Z,8.47
2018-03-19T16:05:26.481Z,8.97
2018-03-19T16:07:58.904Z,7.10
2018-03-19T16:10:31.527Z,7.47
2018-03-19T16:13:04.166Z,6.40
2018-03-19T16:15:36.974Z,8.37
2018-03-19T16:18:10.402Z,7.00
2018-03-19T16:20:42.962Z,6.93
2018-03-19T16:23:16.295Z,5.93
2018-03-19T16:25:50.279Z,8.67
2018-03-19T16:28:23.562Z,7.77
2018-03-19T16:30:56.021Z,8.07
2018-03-19T16:33:28.675Z,7.43
2018-03-19T16:36:01.962Z,10.73
2018-03-19T16:38:34.378Z,7.07
2018-03-19T16:41:07.438Z,6.33
2018-03-19T16:43:39.988Z,7.50
2018-03-19T16:46:12.567Z,6.07
2018-03-19T16:48:45.221Z,6.40
2018-03-19T16:51:17.787Z,8.47
2018-03-19T16:53:50.171Z,7.03
2018-03-19T16:56:23.287Z,6.93
2018-03-19T16:58:55.869Z,5.53
2018-03-19T17:01:28.345Z,5.50
2018-03-19T17:04:00.745Z,8.07
2018-03-19T17:06:33.482Z,6.27
2018-03-19T17:09:06.045Z,11.97
2018-03-19T17:11:39.501Z,7.60
2018-03-19T17:14:12.128Z,5.27
2018-03-19T17:16:44.930Z,6.20
2018-03-19T17:19:17.422Z,7.53
2018-03-19T17:21:50.044Z,7.80
2018-03-19T17:24:22.531Z,7.30
2018-03-19T17:26:55.135Z,8.07
2018-03-19T17:29:28.545Z,18.60
2018-03-19T17:32:01.168Z,7.20
2018-03-19T17:34:34.644Z,6.80
2018-03-19T17:37:07.300Z,6.47
2018-03-19T17:39:40.607Z,6.77
2018-03-19T17:42:13.847Z,7.33
2018-03-19T17:44:47.222Z,7.00
2018-03-19T17:47:19.923Z,7.70
2018-03-19T17:49:52.695Z,6.93
2018-03-19T17:52:25.177Z,7.47
2018-03-19T17:54:58.066Z,5.47
2018-03-19T17:57:30.757Z,6.73
2018-03-19T18:00:03.387Z,6.43
2018-03-19T18:02:36.075Z,8.53
2018-03-19T18:05:08.621Z,7.57
2018-03-19T18:07:41.345Z,7.70
2018-03-19T18:10:13.945Z,7.67
2018-03-19T18:12:46.374Z,7.53
2018-03-19T18:15:19.115Z,9.53
2018-03-19T18:17:51.847Z,7.77
2018-03-19T18:20:24.739Z,10.03
2018-03-19T18:22:58.176Z,9.10
2018-03-19T18:25:30.675Z,8.50
2018-03-19T18:28:03.409Z,10.27
2018-03-19T18:30:35.899Z,11.30
2018-03-19T18:33:08.611Z,8.27
2018-03-19T18:35:41.269Z,6.20
2018-03-19T18:38:13.988Z,6.97
2018-03-19T18:40:46.496Z,6.43
2018-03-19T18:43:19.491Z,7.40
2018-03-19T18:45:51.971Z,10.17
2018-03-19T18:48:28.660Z,8.57
2018-03-19T18:51:02.050Z,8.30
2018-03-19T18:53:35.006Z,8.23
2018-03-19T18:56:07.432Z,7.63
2018-03-19T18:58:40.542Z,6.67
2018-03-19T19:01:14.574Z,9.00
2018-03-19T19:03:47.936Z,9.57
2018-03-19T19:06:20.439Z,10.70
2018-03-19T19:08:53.052Z,10.97
2018-03-19T19:11:26.147Z,6.07
2018-03-19T19:13:59.040Z,9.23
2018-03-19T19:16:31.822Z,7.37
2018-03-19T19:19:05.247Z,8.30
2018-03-19T19:21:32.332Z,10.50
2018-03-19T19:23:58.818Z,10.60
2018-03-19T19:26:25.373Z,9.13
2018-03-19T19:28:52.638Z,11.43
2018-03-19T19:31:18.962Z,7.73
2018-03-19T19:33:46.141Z,12.03
2018-03-19T19:36:12.705Z,9.10
2018-03-19T19:38:39.316Z,12.07
2018-03-19T19:41:05.801Z,11.97
2018-03-19T19:43:33.006Z,8.30
2018-03-19T19:45:59.543Z,7.10
2018-03-19T19:48:25.866Z,9.40
2018-03-19T19:50:52.167Z,10.07
2018-03-19T19:53:19.492Z,9.97
2018-03-19T19:55:45.875Z,10.30
2018-03-19T19:58:12.332Z,7.87
2018-03-19T20:00:38.942Z,9.47
2018-03-19T20:03:05.330Z,11.63
2018-03-19T20:05:32.046Z,8.37
2018-03-19T20:07:59.321Z,10.20
2018-03-19T20:10:25.732Z,12.80
2018-03-19T20:12:52.299Z,8.80
2018-03-19T20:15:18.843Z,8.27
2018-03-19T20:17:46.079Z,10.07
2018-03-19T20:20:13.337Z,10.20
2018-03-19T20:22:39.867Z,12.13
2018-03-19T20:25:07.216Z,10.03
2018-03-19T20:27:33.576Z,14.10
2018-03-19T20:30:00.688Z,12.63
2018-03-19T20:32:27.061Z,12.57
2018-03-19T20:34:53.441Z,11.13
2018-03-19T20:37:20.629Z,16.47
2018-03-19T20:39:48.348Z,24.83
2018-03-19T20:42:14.869Z,26.93
2018-03-19T20:44:41.373Z,29.63
2018-03-19T20:47:08.505Z,29.43
2018-03-19T20:49:35.709Z,25.60
2018-03-19T20:52:02.151Z,27.37
2018-03-19T20:54:34.919Z,20.27
2018-03-19T20:57:07.517Z,16.93
2018-03-19T20:59:41.098Z,20.20
2018-03-19T21:02:14.509Z,23.70
2018-03-19T21:04:47.044Z,25.83
2018-03-19T21:07:19.741Z,25.03
2018-03-19T21:09:53.007Z,25.90
2018-03-19T21:12:25.423Z,25.90
2018-03-19T21:14:58.114Z,26.27
2018-03-19T21:17:31.179Z,24.27
2018-03-19T21:20:05.352Z,22.90
2018-03-19T21:22:37.897Z,23.03
2018-03-19T21:25:10.609Z,22.40
2018-03-19T21:27:43.153Z,24.63
2018-03-19T21:30:15.739Z,25.77
2018-03-19T21:32:48.515Z,24.20
2018-03-19T21:35:25.085Z,24.73
2018-03-19T21:37:58.216Z,26.23
2018-03-19T21:40:30.716Z,23.13
2018-03-19T21:43:03.398Z,20.80
2018-03-19T21:45:36.524Z,24.20
2018-03-19T21:48:08.939Z,27.13
2018-03-19T21:50:41.413Z,28.83
2018-03-19T21:53:14.970Z,28.80
2018-03-19T21:55:47.462Z,20.93
2018-03-19T21:58:20.083Z,26.33
2018-03-19T22:00:52.753Z,27.77
2018-03-19T22:03:26.405Z,24.40
2018-03-19T22:05:59.097Z,30.43
2018-03-19T22:08:31.772Z,25.47
2018-03-19T22:11:05.091Z,21.90
2018-03-19T22:13:37.621Z,27.70
2018-03-19T22:16:10.347Z,27.10
2018-03-19T22:18:43.985Z,28.53
2018-03-19T22:21:16.541Z,25.13
2018-03-19T22:23:48.942Z,23.37
2018-03-19T22:26:22.094Z,20.27
2018-03-19T22:28:54.880Z,29.70
2018-03-19T22:31:27.418Z,25.70
2018-03-19T22:34:00.852Z,30.47
2018-03-19T22:36:33.622Z,26.23
2018-03-19T22:39:06.403Z,28.43
2018-03-19T22:41:39.041Z,27.37
2018-03-19T22:44:11.623Z,30.40
2018-03-19T22:46:44.056Z,24.67
2018-03-19T22:49:16.614Z,22.30
2018-03-19T22:51:49.157Z,23.27
2018-03-19T22:54:21.861Z,30.17
2018-03-19T22:56:54.457Z,27.53
2018-03-19T22:59:27.169Z,30.07
2018-03-19T23:01:59.677Z,21.63
2018-03-19T23:07:34.477Z,23.90
2018-03-19T23:10:07.150Z,23.07
2018-03-19T23:12:39.578Z,24.03
2018-03-19T23:15:12.391Z,21.93
2018-03-19T23:17:44.872Z,31.10
2018-03-19T23:20:17.562Z,32.73
2018-03-19T23:22:50.121Z,22.70
2018-03-19T23:25:22.522Z,21.77
2018-03-19T23:27:55.110Z,22.93
2018-03-19T23:30:27.637Z,20.20
2018-03-19T23:33:00.172Z,17.40
2018-03-19T23:35:33.403Z,22.00
2018-03-19T23:38:06.577Z,19.33
2018-03-19T23:40:39.106Z,20.43
2018-03-19T23:43:11.703Z,18.60
2018-03-19T23:45:45.112Z,16.17
2018-03-19T23:48:17.521Z,16.77
2018-03-19T23:50:49.964Z,23.77
2018-03-19T23:53:22.576Z,19.70
2018-03-19T23:55:55.359Z,21.17
2018-03-19T23:58:27.898Z,18.87
